createdAt,value
2022-11-09T00:00:49.540Z,11.07
2022-11-09T00:03:17.245Z,10.50
2022-11-09T00:05:44.829Z,10.88
2022-11-09T00:08:12.350Z,10.18
2022-11-09T00:10:39.611Z,10.95
2022-11-09T00:13:06.657Z,10.02
2022-11-09T00:15:33.358Z,11.60
2022-11-09T00:18:02.930Z,11.07
2022-11-09T00:20:30.231Z,10.38
2022-11-09T00:22:57.494Z,10.57
2022-11-09T00:25:24.516Z,10.95
2022-11-09T00:27:51.635Z,11.50
2022-11-09T00:30:18.742Z,11.75
2022-11-09T00:32:45.810Z,10.65
2022-11-09T00:35:12.876Z,10.90
2022-11-09T00:37:40.017Z,11.18
2022-11-09T00:40:07.479Z,11.18
2022-11-09T00:42:34.542Z,10.45
2022-11-09T00:45:01.613Z,10.57
2022-11-09T00:47:28.667Z,10.60
2022-11-09T00:49:55.846Z,11.10
2022-11-09T00:52:23.014Z,11.43
2022-11-09T00:54:50.108Z,10.40
2022-11-09T00:57:17.166Z,10.93
2022-11-09T00:59:44.231Z,10.95
2022-11-09T01:02:11.305Z,12.48
2022-11-09T01:04:38.701Z,11.50
2022-11-09T01:07:07.320Z,12.43
2022-11-09T01:09:34.606Z,11.15
2022-11-09T01:12:01.703Z,9.82
2022-11-09T01:14:28.782Z,9.88
2022-11-09T01:16:55.840Z,11.93
2022-11-09T01:19:22.917Z,11.40
2022-11-09T01:21:49.542Z,9.70
2022-11-09T01:24:16.571Z,9.55
2022-11-09T01:26:43.566Z,9.82
2022-11-09T01:29:10.651Z,10.38
2022-11-09T01:31:37.710Z,9.55
2022-11-09T01:34:04.783Z,8.73
2022-11-09T01:36:31.730Z,8.57
2022-11-09T01:38:58.807Z,10.15
2022-11-09T01:41:27.347Z,8.43
2022-11-09T01:44:11.731Z,9.30
2022-11-09T01:46:39.798Z,9.50
2022-11-09T01:49:11.806Z,9.10
2022-11-09T01:51:43.166Z,8.83
2022-11-09T01:54:13.350Z,10.90
2022-11-09T01:56:40.813Z,9.82
2022-11-09T01:59:10.925Z,8.73
2022-11-09T02:01:38.456Z,9.10
2022-11-09T02:04:07.447Z,9.32
2022-11-09T02:06:36.130Z,10.95
2022-11-09T02:09:08.101Z,9.10
2022-11-09T02:11:35.464Z,8.60
2022-11-09T02:14:03.904Z,8.57
2022-11-09T02:16:31.085Z,8.50
2022-11-09T02:19:00.705Z,8.85
2022-11-09T02:21:29.776Z,9.38
2022-11-09T02:23:56.826Z,9.27
2022-11-09T02:26:41.665Z,10.15
2022-11-09T02:29:10.168Z,8.17
2022-11-09T02:31:39.269Z,8.80
2022-11-09T02:34:08.917Z,8.82
2022-11-09T02:36:36.052Z,8.35
2022-11-09T02:39:03.945Z,7.75
2022-11-09T02:41:31.794Z,7.68
2022-11-09T02:43:58.924Z,7.67
2022-11-09T02:46:30.384Z,9.05
2022-11-09T02:48:57.427Z,8.85
2022-11-09T02:51:24.486Z,8.20
2022-11-09T02:53:51.540Z,8.65
2022-11-09T02:56:18.658Z,8.23
2022-11-09T02:58:46.024Z,7.45
2022-11-09T03:01:13.157Z,8.20
2022-11-09T03:03:40.261Z,7.63
2022-11-09T03:06:07.319Z,7.70
2022-11-09T03:08:34.471Z,9.23
2022-11-09T03:11:01.542Z,8.30
2022-11-09T03:13:28.916Z,9.63
2022-11-09T03:15:55.955Z,8.82
2022-11-09T03:18:23.088Z,9.90
2022-11-09T03:20:49.775Z,9.73
2022-11-09T03:23:16.983Z,9.55
2022-11-09T03:25:43.724Z,9.20
2022-11-09T03:28:10.842Z,10.52
2022-11-09T03:30:37.904Z,8.95
2022-11-09T03:33:09.876Z,8.37
2022-11-09T03:35:37.415Z,7.63
2022-11-09T03:38:04.701Z,7.53
2022-11-09T03:40:32.215Z,7.65
2022-11-09T03:42:59.324Z,7.35
2022-11-09T03:45:27.989Z,7.35
2022-11-09T03:47:59.871Z,8.27
2022-11-09T03:50:27.895Z,7.05
2022-11-09T03:52:55.004Z,5.15
2022-11-09T03:55:22.256Z,4.95
2022-11-09T03:57:49.603Z,5.05
2022-11-09T04:00:18.144Z,5.35
2022-11-09T04:02:45.131Z,6.55
2022-11-09T04:05:12.483Z,6.30
2022-11-09T04:07:40.114Z,6.22
2022-11-09T04:10:07.824Z,6.80
2022-11-09T04:12:34.903Z,6.53
2022-11-09T04:15:01.986Z,7.03
2022-11-09T04:17:29.099Z,7.90
2022-11-09T04:19:56.132Z,6.45
2022-11-09T04:22:23.210Z,6.50
2022-11-09T04:24:50.275Z,6.03
2022-11-09T04:27:17.378Z,6.97
2022-11-09T04:29:44.452Z,4.32
2022-11-09T04:32:11.480Z,5.22
2022-11-09T04:34:38.562Z,5.10
2022-11-09T04:37:05.624Z,7.63
2022-11-09T04:39:32.691Z,7.20
2022-11-09T04:41:59.740Z,6.45
2022-11-09T04:44:26.796Z,5.70
2022-11-09T04:46:53.847Z,7.25
2022-11-09T04:49:20.952Z,5.35
2022-11-09T04:51:48.165Z,5.70
2022-11-09T04:54:15.327Z,6.00
2022-11-09T04:56:42.383Z,5.85
2022-11-09T04:59:09.049Z,5.53
2022-11-09T05:01:36.157Z,5.63
2022-11-09T05:04:03.285Z,6.23
2022-11-09T05:06:33.502Z,5.20
2022-11-09T05:09:01.653Z,6.23
2022-11-09T05:11:28.811Z,5.68
2022-11-09T05:13:55.867Z,5.38
2022-11-09T05:16:23.281Z,5.55
2022-11-09T05:18:50.969Z,6.05
2022-11-09T05:21:18.582Z,5.25
2022-11-09T05:24:01.491Z,4.80
2022-11-09T05:26:31.550Z,4.90
2022-11-09T05:28:59.217Z,4.65
2022-11-09T05:31:26.830Z,4.60
2022-11-09T05:33:54.537Z,5.33
2022-11-09T05:36:21.765Z,5.35
2022-11-09T05:38:48.858Z,5.85
2022-11-09T05:41:16.163Z,5.05
2022-11-09T05:43:44.701Z,7.72
2022-11-09T05:46:12.157Z,15.30
2022-11-09T05:48:39.269Z,15.75
2022-11-09T05:51:07.062Z,16.95
2022-11-09T05:53:34.170Z,17.35
2022-11-09T05:56:03.541Z,10.98
2022-11-09T05:58:30.704Z,9.65
2022-11-09T06:00:59.740Z,8.48
2022-11-09T06:03:26.822Z,7.43
2022-11-09T06:05:53.926Z,9.77
2022-11-09T06:08:20.957Z,9.40
2022-11-09T06:10:47.990Z,11.55
2022-11-09T06:13:15.042Z,12.60
2022-11-09T06:15:42.140Z,10.60
2022-11-09T06:18:09.254Z,11.77
2022-11-09T06:20:36.338Z,12.30
2022-11-09T06:23:04.539Z,11.93
2022-11-09T06:25:32.818Z,11.13
2022-11-09T06:28:00.122Z,10.90
2022-11-09T06:30:27.182Z,15.03
2022-11-09T06:33:02.233Z,14.70
2022-11-09T06:35:29.592Z,14.73
2022-11-09T06:37:58.418Z,10.02
2022-11-09T06:40:25.606Z,7.38
2022-11-09T06:42:53.112Z,5.90
2022-11-09T06:45:20.257Z,6.43
2022-11-09T06:47:47.328Z,6.80
2022-11-09T06:50:14.266Z,7.40
2022-11-09T06:52:41.333Z,5.82
2022-11-09T06:55:08.948Z,7.40
2022-11-09T06:57:36.050Z,6.95
2022-11-09T07:00:03.532Z,6.18
2022-11-09T07:02:30.569Z,6.47
2022-11-09T07:04:57.653Z,5.63
2022-11-09T07:07:28.036Z,5.05
2022-11-09T07:09:55.951Z,6.10
2022-11-09T07:12:23.220Z,4.50
2022-11-09T07:14:50.294Z,4.55
2022-11-09T07:17:17.444Z,3.87
2022-11-09T07:19:44.452Z,3.40
2022-11-09T07:22:11.477Z,3.03
2022-11-09T07:24:38.544Z,3.38
2022-11-09T07:27:05.588Z,4.68
2022-11-09T07:29:32.652Z,3.85
2022-11-09T07:31:59.712Z,4.07
2022-11-09T07:34:26.773Z,5.05
2022-11-09T07:36:54.480Z,4.22
2022-11-09T07:39:21.574Z,3.70
2022-11-09T07:41:49.231Z,3.10
2022-11-09T07:44:18.309Z,2.88
2022-11-09T07:46:47.192Z,2.63
2022-11-09T07:49:14.544Z,2.17
2022-11-09T07:51:42.351Z,0.20
2022-11-09T07:54:10.153Z,0.20
2022-11-09T07:56:37.750Z,0.40
2022-11-09T07:59:04.756Z,1.60
2022-11-09T08:01:31.865Z,0.50
2022-11-09T08:03:58.900Z,0.25
2022-11-09T08:06:28.107Z,0.25
2022-11-09T08:08:56.528Z,0.20
2022-11-09T08:11:23.651Z,0.10
2022-11-09T08:13:50.750Z,0.00
2022-11-09T08:16:17.832Z,0.80
2022-11-09T08:18:44.826Z,0.03
2022-11-09T08:21:11.854Z,0.20
2022-11-09T08:23:38.945Z,0.30
2022-11-09T08:26:06.942Z,1.80
2022-11-09T08:28:34.718Z,0.38
2022-11-09T08:31:06.974Z,0.10
2022-11-09T08:33:36.844Z,0.13
2022-11-09T08:36:19.724Z,0.00
2022-11-09T08:38:46.872Z,0.05
2022-11-09T08:41:14.547Z,0.20
2022-11-09T08:43:41.855Z,0.20
2022-11-09T08:46:09.026Z,0.10
2022-11-09T08:48:36.313Z,0.30
2022-11-09T08:51:03.402Z,0.32
2022-11-09T08:53:30.552Z,0.90
2022-11-09T08:55:59.686Z,0.15
2022-11-09T08:58:26.822Z,0.35
2022-11-09T09:00:54.152Z,0.45
2022-11-09T09:03:20.846Z,0.40
2022-11-09T09:05:47.941Z,0.40
2022-11-09T09:08:15.693Z,0.20
2022-11-09T09:10:43.027Z,0.10
2022-11-09T09:13:10.308Z,0.30
2022-11-09T09:15:37.058Z,0.20
2022-11-09T09:18:04.484Z,0.43
2022-11-09T09:20:32.122Z,0.20
2022-11-09T09:23:00.270Z,0.20
2022-11-09T09:25:27.728Z,0.17
2022-11-09T09:27:54.786Z,0.10
2022-11-09T09:30:21.897Z,0.10
2022-11-09T09:32:48.925Z,0.00
2022-11-09T09:35:16.036Z,0.15
2022-11-09T09:37:44.290Z,0.10
2022-11-09T09:40:21.755Z,0.20
2022-11-09T09:42:49.039Z,0.20
2022-11-09T09:45:18.703Z,0.10
2022-11-09T09:47:46.040Z,0.00
2022-11-09T09:50:15.473Z,0.07
2022-11-09T09:53:04.668Z,0.30
2022-11-09T09:55:38.456Z,0.13
2022-11-09T09:58:07.507Z,0.10
2022-11-09T10:00:38.631Z,0.10
2022-11-09T10:03:06.556Z,0.17
2022-11-09T10:05:41.256Z,0.30
2022-11-09T10:08:14.965Z,0.30
2022-11-09T10:10:56.541Z,0.20
2022-11-09T10:13:23.553Z,0.70
2022-11-09T10:15:56.216Z,0.10
2022-11-09T10:18:43.160Z,0.20
2022-11-09T10:21:10.217Z,0.20
2022-11-09T10:23:57.240Z,0.33
2022-11-09T10:26:39.210Z,0.10
2022-11-09T10:29:26.158Z,0.50
2022-11-09T10:31:55.314Z,0.30
2022-11-09T10:34:28.232Z,0.40
2022-11-09T10:36:58.556Z,0.30
2022-11-09T10:39:27.447Z,0.20
2022-11-09T10:41:54.525Z,0.30
2022-11-09T10:44:21.632Z,0.10
2022-11-09T10:47:05.964Z,0.20
2022-11-09T10:49:33.946Z,4.07
2022-11-09T10:52:01.506Z,3.60
2022-11-09T10:54:31.301Z,3.47
2022-11-09T10:57:06.195Z,3.60
2022-11-09T10:59:34.974Z,3.30
2022-11-09T11:02:02.593Z,3.17
2022-11-09T11:04:29.794Z,2.53
2022-11-09T11:06:56.888Z,2.47
2022-11-09T11:09:24.031Z,2.83
2022-11-09T11:12:06.180Z,3.45
2022-11-09T11:14:35.017Z,3.00
2022-11-09T11:17:02.152Z,2.63
2022-11-09T11:19:45.753Z,4.20
2022-11-09T11:22:12.980Z,3.78
2022-11-09T11:24:42.210Z,3.13
2022-11-09T11:27:14.800Z,2.83
2022-11-09T11:29:41.878Z,2.20
2022-11-09T11:32:11.563Z,2.45
2022-11-09T11:34:59.052Z,2.13
2022-11-09T11:37:30.287Z,2.35
2022-11-09T11:40:00.563Z,2.78
2022-11-09T11:42:27.579Z,2.33
2022-11-09T11:45:38.874Z,2.15
2022-11-09T11:48:04.817Z,4.57
2022-11-09T11:50:43.851Z,5.30
2022-11-09T11:53:11.971Z,4.57
2022-11-09T11:55:40.131Z,3.63
2022-11-09T11:58:27.087Z,2.90
2022-11-09T12:01:14.135Z,3.30
2022-11-09T12:03:41.233Z,2.30
2022-11-09T12:06:08.324Z,2.00
2022-11-09T12:08:51.475Z,2.40
2022-11-09T12:11:35.544Z,2.63
2022-11-09T12:14:12.333Z,1.85
2022-11-09T12:16:40.500Z,2.85
2022-11-09T12:19:15.059Z,2.30
2022-11-09T12:21:47.360Z,2.30
2022-11-09T12:24:34.315Z,2.30
2022-11-09T12:27:32.925Z,2.93
2022-11-09T12:30:21.342Z,1.90
2022-11-09T12:32:53.233Z,2.22
2022-11-09T12:35:24.056Z,2.80
2022-11-09T12:37:55.228Z,3.17
2022-11-09T12:40:24.773Z,2.50
2022-11-09T12:42:56.663Z,3.05
2022-11-09T12:45:28.064Z,2.88
2022-11-09T12:47:57.886Z,2.88
2022-11-09T12:50:26.144Z,2.78
2022-11-09T12:52:53.491Z,2.80
2022-11-09T12:55:23.324Z,2.67
2022-11-09T12:57:50.515Z,3.05
2022-11-09T13:00:37.500Z,2.53
2022-11-09T13:03:07.598Z,2.38
2022-11-09T13:05:37.668Z,3.08
2022-11-09T13:08:07.351Z,3.22
2022-11-09T13:10:38.372Z,3.00
2022-11-09T13:13:19.645Z,2.53
2022-11-09T13:16:06.922Z,2.85
2022-11-09T13:18:40.463Z,3.47
2022-11-09T13:21:26.988Z,4.05
2022-11-09T13:24:03.969Z,3.28
2022-11-09T13:26:32.993Z,3.35
2022-11-09T13:29:08.883Z,2.97
2022-11-09T13:31:55.882Z,2.50
2022-11-09T13:34:42.841Z,2.60
2022-11-09T13:37:29.832Z,2.20
2022-11-09T13:39:56.899Z,2.22
2022-11-09T13:42:24.972Z,2.40
2022-11-09T13:44:52.084Z,2.47
2022-11-09T13:47:23.567Z,2.40
2022-11-09T13:49:51.526Z,2.30
2022-11-09T13:52:38.497Z,2.25
2022-11-09T13:55:13.270Z,2.50
2022-11-09T13:57:41.006Z,2.78
2022-11-09T14:00:15.084Z,5.23
2022-11-09T14:02:52.335Z,2.90
2022-11-09T14:05:28.239Z,4.38
2022-11-09T14:07:55.914Z,3.45
2022-11-09T14:10:23.979Z,3.53
2022-11-09T14:13:10.990Z,2.78
2022-11-09T14:15:57.973Z,3.10
2022-11-09T14:18:38.840Z,4.85
2022-11-09T14:21:25.897Z,4.45
2022-11-09T14:23:54.111Z,3.75
2022-11-09T14:26:22.635Z,2.90
2022-11-09T14:28:49.705Z,2.70
2022-11-09T14:31:25.373Z,2.45
2022-11-09T14:34:01.485Z,2.08
2022-11-09T14:36:29.651Z,2.20
2022-11-09T14:38:58.477Z,2.15
2022-11-09T14:41:26.651Z,2.03
2022-11-09T14:43:55.721Z,1.75
2022-11-09T14:46:24.111Z,1.90
2022-11-09T14:48:52.556Z,1.80
2022-11-09T14:51:19.964Z,1.70
2022-11-09T14:53:47.516Z,2.38
2022-11-09T14:56:16.854Z,3.20
2022-11-09T14:58:44.642Z,2.03
2022-11-09T15:01:20.170Z,2.90
2022-11-09T15:04:06.003Z,2.30
2022-11-09T15:06:34.091Z,2.50
2022-11-09T15:09:02.423Z,3.37
2022-11-09T15:11:33.807Z,4.67
2022-11-09T15:14:01.181Z,3.33
2022-11-09T15:16:29.206Z,2.97
2022-11-09T15:18:56.247Z,2.40
2022-11-09T15:21:26.299Z,3.60
2022-11-09T15:24:08.836Z,3.20
2022-11-09T15:26:44.546Z,3.08
2022-11-09T15:29:29.016Z,6.55
2022-11-09T15:32:11.619Z,3.88
2022-11-09T15:34:40.229Z,3.47
2022-11-09T15:37:24.299Z,3.47
2022-11-09T15:39:51.799Z,2.97
2022-11-09T15:42:19.058Z,3.42
2022-11-09T15:44:46.221Z,2.78
2022-11-09T15:47:19.950Z,3.20
2022-11-09T15:49:47.293Z,3.00
2022-11-09T15:52:14.260Z,2.78
2022-11-09T15:54:46.456Z,3.33
2022-11-09T15:57:16.269Z,2.60
2022-11-09T15:59:43.388Z,3.70
2022-11-09T16:02:12.065Z,5.07
2022-11-09T16:04:39.472Z,3.90
2022-11-09T16:07:06.874Z,3.58
2022-11-09T16:09:34.336Z,4.80
2022-11-09T16:12:01.384Z,4.28
2022-11-09T16:14:31.268Z,3.83
2022-11-09T16:16:58.300Z,4.85
2022-11-09T16:19:25.363Z,4.37
2022-11-09T16:21:53.130Z,4.32
2022-11-09T16:24:20.275Z,3.95
2022-11-09T16:26:47.762Z,5.50
2022-11-09T16:29:14.849Z,4.00
2022-11-09T16:31:51.284Z,3.67
2022-11-09T16:34:19.141Z,3.67
2022-11-09T16:36:52.354Z,3.30
2022-11-09T16:39:23.786Z,3.13
2022-11-09T16:41:51.694Z,4.80
2022-11-09T16:44:22.540Z,4.82
2022-11-09T16:46:49.683Z,9.20
2022-11-09T16:49:16.853Z,6.70
2022-11-09T16:51:43.960Z,5.88
2022-11-09T16:54:11.023Z,4.22
2022-11-09T16:56:38.082Z,4.00
2022-11-09T16:59:05.113Z,5.17
2022-11-09T17:01:32.219Z,9.40
2022-11-09T17:03:59.409Z,6.70
2022-11-09T17:06:26.758Z,5.57
2022-11-09T17:08:56.773Z,9.13
2022-11-09T17:11:23.941Z,12.70
2022-11-09T17:13:58.914Z,23.88
2022-11-09T17:16:26.389Z,24.65
2022-11-09T17:18:54.889Z,27.73
2022-11-09T17:21:22.467Z,22.15
2022-11-09T17:23:49.598Z,15.87
2022-11-09T17:26:16.913Z,11.50
2022-11-09T17:28:44.172Z,10.30
2022-11-09T17:31:12.860Z,9.40
2022-11-09T17:33:39.993Z,9.27
2022-11-09T17:36:08.861Z,9.07
2022-11-09T17:38:36.038Z,8.10
2022-11-09T17:41:04.193Z,6.67
2022-11-09T17:43:32.349Z,6.50
2022-11-09T17:46:16.180Z,6.60
2022-11-09T17:48:45.004Z,6.25
2022-11-09T17:51:13.361Z,6.05
2022-11-09T17:53:40.893Z,4.40
2022-11-09T17:56:08.459Z,3.67
2022-11-09T17:58:35.960Z,2.85
2022-11-09T18:01:07.919Z,3.05
2022-11-09T18:03:36.294Z,3.40
2022-11-09T18:06:04.338Z,3.60
2022-11-09T18:08:31.508Z,4.72
2022-11-09T18:10:59.291Z,5.68
2022-11-09T18:13:26.714Z,10.47
2022-11-09T18:15:54.288Z,8.60
2022-11-09T18:18:21.837Z,4.82
2022-11-09T18:20:49.520Z,7.43
2022-11-09T18:23:16.555Z,8.85
2022-11-09T18:25:43.596Z,6.30
2022-11-09T18:28:13.005Z,9.50
2022-11-09T18:30:41.717Z,6.50
2022-11-09T18:33:09.422Z,6.43
2022-11-09T18:35:36.765Z,7.03
2022-11-09T18:38:03.805Z,7.77
2022-11-09T18:40:31.230Z,6.07
2022-11-09T18:43:00.217Z,4.47
2022-11-09T18:45:27.430Z,5.80
2022-11-09T18:47:54.149Z,4.07
2022-11-09T18:50:21.776Z,3.17
2022-11-09T18:52:48.869Z,2.80
2022-11-09T18:55:16.162Z,8.23
2022-11-09T18:57:43.229Z,7.25
2022-11-09T19:00:11.149Z,5.28
2022-11-09T19:02:38.149Z,4.00
2022-11-09T19:05:06.764Z,3.10
2022-11-09T19:07:33.828Z,2.70
2022-11-09T19:10:00.907Z,0.10
2022-11-09T19:12:29.473Z,0.20
2022-11-09T19:14:58.988Z,0.17
2022-11-09T19:17:26.063Z,0.23
2022-11-09T19:19:53.156Z,0.30
2022-11-09T19:22:20.320Z,0.10
2022-11-09T19:24:47.478Z,0.50
2022-11-09T19:27:14.542Z,0.28
2022-11-09T19:29:41.615Z,0.25
2022-11-09T19:32:09.715Z,0.20
2022-11-09T19:34:36.872Z,0.28
2022-11-09T19:37:03.927Z,0.70
2022-11-09T19:39:33.820Z,0.30
2022-11-09T19:42:02.625Z,0.40
2022-11-09T19:44:29.668Z,0.60
2022-11-09T19:46:57.026Z,0.60
2022-11-09T19:49:24.054Z,0.10
2022-11-09T19:51:51.132Z,0.47
2022-11-09T19:54:18.214Z,0.70
2022-11-09T19:56:45.320Z,0.30
2022-11-09T19:59:14.691Z,0.38
2022-11-09T20:01:42.033Z,0.17
2022-11-09T20:04:10.538Z,0.20
2022-11-09T20:06:38.718Z,0.80
2022-11-09T20:09:05.852Z,0.50
2022-11-09T20:11:52.836Z,0.20
2022-11-09T20:14:20.457Z,0.25
2022-11-09T20:16:48.401Z,0.20
2022-11-09T20:19:15.960Z,0.43
2022-11-09T20:21:44.425Z,0.80
2022-11-09T20:24:12.310Z,0.80
2022-11-09T20:26:40.312Z,1.20
2022-11-09T20:29:07.464Z,1.30
2022-11-09T20:31:34.575Z,0.73
2022-11-09T20:34:02.380Z,1.80
2022-11-09T20:36:29.475Z,0.88
2022-11-09T20:38:56.586Z,1.35
2022-11-09T20:41:25.611Z,2.20
2022-11-09T20:43:52.947Z,0.25
2022-11-09T20:46:21.323Z,0.32
2022-11-09T20:48:56.058Z,0.30
2022-11-09T20:51:24.193Z,1.20
2022-11-09T20:53:51.396Z,0.40
2022-11-09T20:56:18.980Z,0.77
2022-11-09T20:58:46.211Z,0.75
2022-11-09T21:01:15.447Z,0.45
2022-11-09T21:03:43.785Z,0.40
2022-11-09T21:06:12.417Z,0.20
2022-11-09T21:08:39.863Z,0.38
2022-11-09T21:11:07.807Z,0.80
2022-11-09T21:13:34.886Z,0.50
2022-11-09T21:16:06.739Z,0.38
2022-11-09T21:18:33.955Z,0.60
2022-11-09T21:21:09.147Z,0.30
2022-11-09T21:23:57.074Z,0.60
2022-11-09T21:26:44.528Z,0.50
2022-11-09T21:29:32.895Z,0.30
2022-11-09T21:32:00.341Z,0.40
2022-11-09T21:34:31.468Z,1.30
2022-11-09T21:37:01.178Z,0.47
2022-11-09T21:39:28.229Z,0.50
2022-11-09T21:41:55.281Z,0.68
2022-11-09T21:44:22.501Z,0.20
2022-11-09T21:46:49.565Z,0.30
2022-11-09T21:49:16.589Z,0.80
2022-11-09T21:51:43.651Z,1.98
2022-11-09T21:54:10.743Z,1.50
2022-11-09T21:56:37.903Z,0.50
2022-11-09T21:59:05.271Z,0.90
2022-11-09T22:01:32.691Z,0.88
2022-11-09T22:04:00.032Z,0.57
2022-11-09T22:06:27.218Z,0.80
2022-11-09T22:08:54.526Z,0.68
2022-11-09T22:11:42.959Z,0.50
2022-11-09T22:14:33.689Z,0.30
2022-11-09T22:17:00.827Z,0.70
2022-11-09T22:19:48.314Z,0.10
2022-11-09T22:22:15.584Z,0.28
2022-11-09T22:24:42.652Z,0.10
2022-11-09T22:27:10.045Z,0.10
2022-11-09T22:29:37.157Z,0.28
2022-11-09T22:32:04.408Z,0.30
2022-11-09T22:34:31.506Z,0.20
2022-11-09T22:36:58.659Z,0.10
2022-11-09T22:39:25.870Z,0.20
2022-11-09T22:41:52.926Z,0.10
2022-11-09T22:44:19.979Z,0.20
2022-11-09T22:46:48.230Z,0.20
2022-11-09T22:49:17.166Z,0.10
2022-11-09T22:51:44.368Z,1.65
2022-11-09T22:54:11.491Z,0.93
2022-11-09T22:56:38.541Z,1.00
2022-11-09T22:59:05.674Z,0.20
2022-11-09T23:01:32.921Z,0.30
2022-11-09T23:04:00.167Z,0.00
2022-11-09T23:06:27.272Z,0.50
2022-11-09T23:08:54.305Z,0.10
2022-11-09T23:11:22.788Z,0.45
2022-11-09T23:13:52.197Z,0.30
2022-11-09T23:16:19.723Z,0.10
2022-11-09T23:18:54.015Z,0.10
2022-11-09T23:21:22.108Z,0.30
2022-11-09T23:23:49.765Z,0.15
2022-11-09T23:26:17.153Z,0.10
2022-11-09T23:28:44.196Z,0.10
2022-11-09T23:31:13.829Z,0.00
2022-11-09T23:33:40.978Z,0.30
2022-11-09T23:36:08.842Z,0.03
2022-11-09T23:38:36.821Z,0.10
2022-11-09T23:41:04.541Z,0.10
2022-11-09T23:43:31.585Z,0.10
2022-11-09T23:46:08.052Z,0.00
2022-11-09T23:48:35.237Z,0.00
2022-11-09T23:51:02.773Z,0.17
2022-11-09T23:53:30.695Z,0.40
2022-11-09T23:56:06.650Z,0.30
2022-11-09T23:58:33.864Z,0.13
